Blythe Airport Blythe US
ICAO: KBLH
IATA: BLH
Category: Medium
Scheduled Services: No

Elevation: 399 ft
TransAlt. 18000 ft.

Airport Communications:
ASOS:120.175
LOS ANGELES CNTR:128.15
RIVERSIDE RDO:122.4
CTAF/UNICOM:122.8

KBLH Zoom In..

Runways:

(A) RW 08 length 6543 ft width 150 ft
---- / hdg 77

(B) RW 17 length 5800 ft width 100 ft
---- / hdg 167

(C) RW 26 length 6543 ft width 150 ft
---- / hdg 257

(D) RW 35 length 5800 ft width 100 ft
---- / hdg 347

Location; KBLH
Day. 25 / Time. 12.52 Zulu
* Altimeter: 30.10
* Temperature: 06° c. 42.8°f.
* Wind from: 340° Speed 06 kn.
Dewpoint: -08° c.
Visibility: 10 Statute Miles.
Clouds: Clear (automated report).

KBLH 251252Z AUTO 34006KT 10SM CLR 06/M08 A3010 RMK AO2 SLP189 T00611083

Going to: --> -->


Wind From 340°
Speed 06 kn.

 
 
jpsmedia worldairports.se 2020   terms of use